Terminal Aerodrome Forecast
Issued by NWS Austin/San Antonio, TX

Home | Current Version | Previous Version | Text Only | Print | Product List | Glossary On
Versions: 1 2 3 4 5 6 7 8 9 10 11 12 13 14 15 16 17 18 19 20 21 22 23 24
104
FTUS44 KEWX 262350
TAFSAT
TAF
KSAT 262350Z 2700/2806 17012KT P6SM SCT035 BKN050
     FM270600 13010KT P6SM VCSH OVC015
      TEMPO 2706/2710 VRB15G25KT 5SM TSRA OVC010CB
     FM271000 15012KT P6SM OVC007
     FM271500 17013KT P6SM OVC015
     FM272000 15014KT P6SM BKN025 BKN040 PROB30 2722/2802 VRB25G35KT
      3SM TSRA OVC020CB=

USA.gov is the U.S. government's official web portal to all federal, state and local government web resources and services.